sensor_id;sensor_type;location;lat;lon;timestamp;P1;durP1;ratioP1;P2;durP2;ratioP2
17917;SDS011;9084;50.956;3.106;2024-03-23T00:52:45;11.60;;;8.07;;
17917;SDS011;9084;50.956;3.106;2024-03-23T00:55:13;10.88;;;8.15;;
17917;SDS011;9084;50.956;3.106;2024-03-23T00:57:39;9.10;;;7.35;;
17917;SDS011;9084;50.956;3.106;2024-03-23T01:00:05;8.50;;;7.45;;
17917;SDS011;9084;50.956;3.106;2024-03-23T01:02:33;15.13;;;8.43;;
17917;SDS011;9084;50.956;3.106;2024-03-23T01:04:59;10.18;;;7.70;;
17917;SDS011;9084;50.956;3.106;2024-03-23T01:07:24;11.30;;;7.18;;
17917;SDS011;9084;50.956;3.106;2024-03-23T01:09:52;7.95;;;6.85;;
17917;SDS011;9084;50.956;3.106;2024-03-23T01:12:18;9.30;;;7.75;;
17917;SDS011;9084;50.956;3.106;2024-03-23T01:14:43;12.70;;;7.60;;
17917;SDS011;9084;50.956;3.106;2024-03-23T01:17:09;10.73;;;6.57;;
17917;SDS011;9084;50.956;3.106;2024-03-23T01:19:39;11.48;;;7.43;;
17917;SDS011;9084;50.956;3.106;2024-03-23T01:22:06;8.88;;;6.78;;
17917;SDS011;9084;50.956;3.106;2024-03-23T01:24:32;10.60;;;7.15;;
17917;SDS011;9084;50.956;3.106;2024-03-23T01:26:58;8.30;;;6.60;;
17917;SDS011;9084;50.956;3.106;2024-03-23T01:29:25;5.95;;;5.35;;
17917;SDS011;9084;50.956;3.106;2024-03-23T01:31:53;7.90;;;5.95;;
17917;SDS011;9084;50.956;3.106;2024-03-23T01:34:19;9.50;;;6.47;;
17917;SDS011;9084;50.956;3.106;2024-03-23T01:36:45;6.82;;;5.72;;
17917;SDS011;9084;50.956;3.106;2024-03-23T01:39:12;8.23;;;6.63;;
17917;SDS011;9084;50.956;3.106;2024-03-23T01:41:40;9.23;;;5.82;;
17917;SDS011;9084;50.956;3.106;2024-03-23T01:44:08;7.55;;;5.55;;
17917;SDS011;9084;50.956;3.106;2024-03-23T01:46:37;9.50;;;5.50;;
17917;SDS011;9084;50.956;3.106;2024-03-23T01:49:06;10.82;;;6.00;;
17917;SDS011;9084;50.956;3.106;2024-03-23T01:51:33;7.28;;;5.03;;
17917;SDS011;9084;50.956;3.106;2024-03-23T01:54:01;7.50;;;5.53;;
17917;SDS011;9084;50.956;3.106;2024-03-23T01:56:31;7.57;;;4.25;;
17917;SDS011;9084;50.956;3.106;2024-03-23T01:59:01;7.65;;;4.28;;
17917;SDS011;9084;50.956;3.106;2024-03-23T02:01:28;5.43;;;4.10;;
17917;SDS011;9084;50.956;3.106;2024-03-23T02:03:56;8.68;;;3.50;;
17917;SDS011;9084;50.956;3.106;2024-03-23T02:06:24;5.53;;;3.33;;
17917;SDS011;9084;50.956;3.106;2024-03-23T02:08:50;3.90;;;2.72;;
17917;SDS011;9084;50.956;3.106;2024-03-23T02:11:16;5.22;;;2.65;;
17917;SDS011;9084;50.956;3.106;2024-03-23T02:13:42;4.63;;;2.78;;
17917;SDS011;9084;50.956;3.106;2024-03-23T02:16:07;5.30;;;2.70;;
17917;SDS011;9084;50.956;3.106;2024-03-23T02:18:33;4.25;;;2.47;;
17917;SDS011;9084;50.956;3.106;2024-03-23T02:21:01;3.30;;;2.08;;
17917;SDS011;9084;50.956;3.106;2024-03-23T02:23:27;4.75;;;2.35;;
17917;SDS011;9084;50.956;3.106;2024-03-23T02:25:55;4.85;;;1.88;;
17917;SDS011;9084;50.956;3.106;2024-03-23T02:28:21;3.95;;;1.90;;
17917;SDS011;9084;50.956;3.106;2024-03-23T02:30:48;6.25;;;2.38;;
17917;SDS011;9084;50.956;3.106;2024-03-23T02:33:14;5.03;;;2.60;;
17917;SDS011;9084;50.956;3.106;2024-03-23T02:35:40;6.00;;;2.00;;
17917;SDS011;9084;50.956;3.106;2024-03-23T02:38:05;5.05;;;2.15;;
17917;SDS011;9084;50.956;3.106;2024-03-23T02:40:31;5.10;;;2.17;;
17917;SDS011;9084;50.956;3.106;2024-03-23T02:42:56;5.05;;;1.95;;
17917;SDS011;9084;50.956;3.106;2024-03-23T02:45:22;4.75;;;2.22;;
17917;SDS011;9084;50.956;3.106;2024-03-23T02:47:48;3.75;;;1.77;;
17917;SDS011;9084;50.956;3.106;2024-03-23T02:50:17;6.65;;;2.08;;
17917;SDS011;9084;50.956;3.106;2024-03-23T02:52:45;4.03;;;2.00;;
17917;SDS011;9084;50.956;3.106;2024-03-23T02:55:12;5.20;;;1.95;;
17917;SDS011;9084;50.956;3.106;2024-03-23T02:57:40;4.28;;;2.00;;
17917;SDS011;9084;50.956;3.106;2024-03-23T03:00:06;4.63;;;1.90;;
17917;SDS011;9084;50.956;3.106;2024-03-23T03:02:32;5.25;;;2.10;;
17917;SDS011;9084;50.956;3.106;2024-03-23T03:04:59;5.15;;;1.90;;
17917;SDS011;9084;50.956;3.106;2024-03-23T03:07:24;4.82;;;1.90;;
17917;SDS011;9084;50.956;3.106;2024-03-23T03:09:50;4.75;;;1.75;;
17917;SDS011;9084;50.956;3.106;2024-03-23T03:12:16;4.07;;;1.75;;
17917;SDS011;9084;50.956;3.106;2024-03-23T03:14:42;6.07;;;2.23;;
17917;SDS011;9084;50.956;3.106;2024-03-23T03:17:07;7.55;;;2.25;;
17917;SDS011;9084;50.956;3.106;2024-03-23T03:19:33;6.30;;;2.20;;
17917;SDS011;9084;50.956;3.106;2024-03-23T03:21:59;5.40;;;2.17;;
17917;SDS011;9084;50.956;3.106;2024-03-23T03:24:25;4.43;;;2.05;;
17917;SDS011;9084;50.956;3.106;2024-03-23T03:26:50;3.92;;;1.45;;
17917;SDS011;9084;50.956;3.106;2024-03-23T03:29:18;6.22;;;1.75;;
17917;SDS011;9084;50.956;3.106;2024-03-23T03:31:44;6.60;;;1.65;;
17917;SDS011;9084;50.956;3.106;2024-03-23T03:34:10;5.55;;;2.10;;
17917;SDS011;9084;50.956;3.106;2024-03-23T03:36:35;5.65;;;1.77;;
17917;SDS011;9084;50.956;3.106;2024-03-23T03:39:01;8.85;;;1.92;;
17917;SDS011;9084;50.956;3.106;2024-03-23T03:41:31;6.87;;;1.73;;
17917;SDS011;9084;50.956;3.106;2024-03-23T03:43:57;8.48;;;1.98;;
17917;SDS011;9084;50.956;3.106;2024-03-23T03:46:27;8.80;;;1.70;;
17917;SDS011;9084;50.956;3.106;2024-03-23T03:48:54;5.68;;;1.85;;
17917;SDS011;9084;50.956;3.106;2024-03-23T03:51:19;6.10;;;2.20;;
17917;SDS011;9084;50.956;3.106;2024-03-23T03:53:46;5.10;;;1.85;;
17917;SDS011;9084;50.956;3.106;2024-03-23T03:56:11;7.13;;;1.90;;
17917;SDS011;9084;50.956;3.106;2024-03-23T03:58:37;6.97;;;2.17;;
17917;SDS011;9084;50.956;3.106;2024-03-23T04:01:05;6.67;;;2.30;;
17917;SDS011;9084;50.956;3.106;2024-03-23T04:03:31;6.18;;;1.98;;
17917;SDS011;9084;50.956;3.106;2024-03-23T04:05:59;6.43;;;1.75;;
17917;SDS011;9084;50.956;3.106;2024-03-23T04:08:28;4.50;;;2.13;;
17917;SDS011;9084;50.956;3.106;2024-03-23T04:10:53;6.47;;;2.30;;
17917;SDS011;9084;50.956;3.106;2024-03-23T04:13:21;6.22;;;2.10;;
17917;SDS011;9084;50.956;3.106;2024-03-23T04:15:53;7.37;;;2.07;;
17917;SDS011;9084;50.956;3.106;2024-03-23T04:18:20;6.05;;;1.73;;
17917;SDS011;9084;50.956;3.106;2024-03-23T04:20:51;4.75;;;2.08;;
17917;SDS011;9084;50.956;3.106;2024-03-23T04:23:19;4.50;;;2.53;;
17917;SDS011;9084;50.956;3.106;2024-03-23T04:25:46;4.75;;;2.25;;
17917;SDS011;9084;50.956;3.106;2024-03-23T04:28:14;5.55;;;1.90;;
17917;SDS011;9084;50.956;3.106;2024-03-23T04:30:39;6.80;;;2.00;;
17917;SDS011;9084;50.956;3.106;2024-03-23T04:33:05;4.10;;;1.75;;
17917;SDS011;9084;50.956;3.106;2024-03-23T04:35:32;6.68;;;2.17;;
17917;SDS011;9084;50.956;3.106;2024-03-23T04:38:00;6.35;;;2.13;;
17917;SDS011;9084;50.956;3.106;2024-03-23T04:40:28;5.28;;;2.28;;
17917;SDS011;9084;50.956;3.106;2024-03-23T04:42:53;7.65;;;2.60;;
17917;SDS011;9084;50.956;3.106;2024-03-23T04:45:21;4.60;;;2.03;;
17917;SDS011;9084;50.956;3.106;2024-03-23T04:47:47;5.95;;;1.98;;
17917;SDS011;9084;50.956;3.106;2024-03-23T04:50:13;6.30;;;2.13;;
17917;SDS011;9084;50.956;3.106;2024-03-23T04:52:40;4.67;;;1.77;;
17917;SDS011;9084;50.956;3.106;2024-03-23T04:55:06;6.78;;;1.95;;
17917;SDS011;9084;50.956;3.106;2024-03-23T04:57:34;7.20;;;1.92;;
17917;SDS011;9084;50.956;3.106;2024-03-23T05:00:00;7.13;;;2.17;;
17917;SDS011;9084;50.956;3.106;2024-03-23T05:02:26;3.60;;;1.75;;
17917;SDS011;9084;50.956;3.106;2024-03-23T05:04:52;5.63;;;1.92;;
17917;SDS011;9084;50.956;3.106;2024-03-23T05:07:20;4.40;;;1.60;;
17917;SDS011;9084;50.956;3.106;2024-03-23T05:09:45;6.38;;;2.15;;
17917;SDS011;9084;50.956;3.106;2024-03-23T05:12:11;6.05;;;1.60;;
17917;SDS011;9084;50.956;3.106;2024-03-23T05:14:36;4.77;;;1.87;;
17917;SDS011;9084;50.956;3.106;2024-03-23T05:17:02;9.32;;;1.88;;
17917;SDS011;9084;50.956;3.106;2024-03-23T05:19:30;4.47;;;1.60;;
17917;SDS011;9084;50.956;3.106;2024-03-23T05:21:55;6.63;;;1.90;;
17917;SDS011;9084;50.956;3.106;2024-03-23T05:24:21;7.43;;;1.70;;
17917;SDS011;9084;50.956;3.106;2024-03-23T05:26:47;5.68;;;1.80;;
17917;SDS011;9084;50.956;3.106;2024-03-23T05:29:12;4.07;;;1.48;;
17917;SDS011;9084;50.956;3.106;2024-03-23T05:31:38;7.78;;;1.85;;
17917;SDS011;9084;50.956;3.106;2024-03-23T05:34:06;5.00;;;1.93;;
17917;SDS011;9084;50.956;3.106;2024-03-23T05:36:34;5.47;;;1.63;;
17917;SDS011;9084;50.956;3.106;2024-03-23T05:39:01;7.07;;;1.73;;
17917;SDS011;9084;50.956;3.106;2024-03-23T05:41:26;7.17;;;1.93;;
17917;SDS011;9084;50.956;3.106;2024-03-23T05:43:54;7.33;;;1.90;;
17917;SDS011;9084;50.956;3.106;2024-03-23T05:46:20;6.20;;;1.83;;
17917;SDS011;9084;50.956;3.106;2024-03-23T05:48:45;6.17;;;1.83;;
17917;SDS011;9084;50.956;3.106;2024-03-23T05:51:11;6.87;;;1.97;;
17917;SDS011;9084;50.956;3.106;2024-03-23T05:53:37;4.53;;;1.80;;
17917;SDS011;9084;50.956;3.106;2024-03-23T05:56:03;6.63;;;2.50;;
17917;SDS011;9084;50.956;3.106;2024-03-23T05:58:30;6.73;;;2.40;;
17917;SDS011;9084;50.956;3.106;2024-03-23T06:01:02;5.85;;;1.73;;
17917;SDS011;9084;50.956;3.106;2024-03-23T06:03:28;7.07;;;1.97;;
17917;SDS011;9084;50.956;3.106;2024-03-23T06:05:56;5.77;;;2.03;;
17917;SDS011;9084;50.956;3.106;2024-03-23T06:08:22;6.43;;;2.03;;
17917;SDS011;9084;50.956;3.106;2024-03-23T06:10:49;8.03;;;1.57;;
17917;SDS011;9084;50.956;3.106;2024-03-23T06:13:17;5.07;;;1.50;;
17917;SDS011;9084;50.956;3.106;2024-03-23T06:15:43;5.97;;;1.83;;
17917;SDS011;9084;50.956;3.106;2024-03-23T06:18:11;5.73;;;1.50;;
17917;SDS011;9084;50.956;3.106;2024-03-23T06:20:37;5.67;;;1.53;;
17917;SDS011;9084;50.956;3.106;2024-03-23T06:23:03;6.33;;;1.97;;
17917;SDS011;9084;50.956;3.106;2024-03-23T06:25:29;5.27;;;2.33;;
17917;SDS011;9084;50.956;3.106;2024-03-23T06:27:54;3.57;;;1.50;;
17917;SDS011;9084;50.956;3.106;2024-03-23T06:30:23;5.57;;;1.83;;
17917;SDS011;9084;50.956;3.106;2024-03-23T06:32:49;3.87;;;1.53;;
17917;SDS011;9084;50.956;3.106;2024-03-23T06:35:14;5.27;;;1.87;;
17917;SDS011;9084;50.956;3.106;2024-03-23T06:37:42;5.40;;;1.83;;
17917;SDS011;9084;50.956;3.106;2024-03-23T06:40:08;2.80;;;1.40;;
17917;SDS011;9084;50.956;3.106;2024-03-23T06:42:38;5.67;;;1.83;;
17917;SDS011;9084;50.956;3.106;2024-03-23T06:45:05;4.53;;;1.40;;
17917;SDS011;9084;50.956;3.106;2024-03-23T06:47:31;5.93;;;1.67;;
17917;SDS011;9084;50.956;3.106;2024-03-23T06:49:59;3.47;;;1.47;;
17917;SDS011;9084;50.956;3.106;2024-03-23T06:52:27;11.13;;;2.67;;
17917;SDS011;9084;50.956;3.106;2024-03-23T06:54:53;2.93;;;1.20;;
17917;SDS011;9084;50.956;3.106;2024-03-23T06:57:18;4.60;;;1.60;;
17917;SDS011;9084;50.956;3.106;2024-03-23T06:59:44;3.97;;;1.30;;
17917;SDS011;9084;50.956;3.106;2024-03-23T07:02:12;8.53;;;1.67;;
17917;SDS011;9084;50.956;3.106;2024-03-23T07:04:41;5.40;;;1.87;;
17917;SDS011;9084;50.956;3.106;2024-03-23T07:07:06;4.88;;;1.48;;
17917;SDS011;9084;50.956;3.106;2024-03-23T07:09:32;9.38;;;1.50;;
17917;SDS011;9084;50.956;3.106;2024-03-23T07:12:00;4.07;;;1.40;;
17917;SDS011;9084;50.956;3.106;2024-03-23T07:14:26;5.30;;;1.38;;
17917;SDS011;9084;50.956;3.106;2024-03-23T07:16:51;4.83;;;1.77;;
17917;SDS011;9084;50.956;3.106;2024-03-23T07:19:17;4.10;;;1.63;;
17917;SDS011;9084;50.956;3.106;2024-03-23T07:21:43;3.90;;;1.10;;
17917;SDS011;9084;50.956;3.106;2024-03-23T07:24:10;4.67;;;1.53;;
17917;SDS011;9084;50.956;3.106;2024-03-23T07:26:36;5.35;;;1.50;;
17917;SDS011;9084;50.956;3.106;2024-03-23T07:29:02;6.13;;;1.45;;
17917;SDS011;9084;50.956;3.106;2024-03-23T07:31:28;6.45;;;1.90;;
17917;SDS011;9084;50.956;3.106;2024-03-23T07:33:54;5.03;;;1.10;;
17917;SDS011;9084;50.956;3.106;2024-03-23T07:36:20;7.10;;;1.83;;
17917;SDS011;9084;50.956;3.106;2024-03-23T07:38:48;3.90;;;1.77;;
17917;SDS011;9084;50.956;3.106;2024-03-23T07:41:16;5.88;;;1.95;;
17917;SDS011;9084;50.956;3.106;2024-03-23T07:43:48;2.88;;;1.25;;
17917;SDS011;9084;50.956;3.106;2024-03-23T07:46:16;5.88;;;1.77;;
17917;SDS011;9084;50.956;3.106;2024-03-23T07:48:41;3.92;;;1.60;;
17917;SDS011;9084;50.956;3.106;2024-03-23T07:51:16;6.80;;;1.58;;
17917;SDS011;9084;50.956;3.106;2024-03-23T07:53:44;4.95;;;1.30;;
17917;SDS011;9084;50.956;3.106;2024-03-23T07:56:11;3.60;;;1.40;;
17917;SDS011;9084;50.956;3.106;2024-03-23T07:58:37;5.47;;;1.23;;
17917;SDS011;9084;50.956;3.106;2024-03-23T08:01:07;5.00;;;1.35;;
17917;SDS011;9084;50.956;3.106;2024-03-23T08:03:35;7.10;;;1.48;;
17917;SDS011;9084;50.956;3.106;2024-03-23T08:06:08;3.30;;;1.00;;
17917;SDS011;9084;50.956;3.106;2024-03-23T08:08:43;3.40;;;1.52;;
17917;SDS011;9084;50.956;3.106;2024-03-23T08:11:10;2.60;;;1.23;;
17917;SDS011;9084;50.956;3.106;2024-03-23T08:13:37;4.38;;;1.25;;
17917;SDS011;9084;50.956;3.106;2024-03-23T08:16:04;6.28;;;1.50;;
17917;SDS011;9084;50.956;3.106;2024-03-23T08:18:33;4.22;;;1.33;;
17917;SDS011;9084;50.956;3.106;2024-03-23T08:21:03;2.72;;;0.88;;
17917;SDS011;9084;50.956;3.106;2024-03-23T08:23:30;2.85;;;1.23;;
17917;SDS011;9084;50.956;3.106;2024-03-23T08:25:59;4.45;;;1.17;;
17917;SDS011;9084;50.956;3.106;2024-03-23T08:28:25;7.13;;;1.02;;
17917;SDS011;9084;50.956;3.106;2024-03-23T08:30:54;3.88;;;1.60;;
17917;SDS011;9084;50.956;3.106;2024-03-23T08:33:23;3.25;;;1.40;;
17917;SDS011;9084;50.956;3.106;2024-03-23T08:35:53;3.75;;;1.10;;
17917;SDS011;9084;50.956;3.106;2024-03-23T08:38:26;5.97;;;1.67;;
17917;SDS011;9084;50.956;3.106;2024-03-23T08:41:05;5.43;;;1.50;;
17917;SDS011;9084;50.956;3.106;2024-03-23T08:43:32;4.15;;;1.30;;
17917;SDS011;9084;50.956;3.106;2024-03-23T08:46:04;4.22;;;1.42;;
17917;SDS011;9084;50.956;3.106;2024-03-23T08:48:37;3.28;;;1.20;;
17917;SDS011;9084;50.956;3.106;2024-03-23T08:51:08;4.30;;;1.38;;
17917;SDS011;9084;50.956;3.106;2024-03-23T08:53:35;3.92;;;1.60;;
17917;SDS011;9084;50.956;3.106;2024-03-23T08:56:02;3.60;;;1.40;;
17917;SDS011;9084;50.956;3.106;2024-03-23T08:58:28;3.72;;;1.60;;
17917;SDS011;9084;50.956;3.106;2024-03-23T09:00:56;5.72;;;1.58;;
17917;SDS011;9084;50.956;3.106;2024-03-23T09:03:28;4.72;;;1.58;;
17917;SDS011;9084;50.956;3.106;2024-03-23T09:05:55;4.32;;;1.08;;
17917;SDS011;9084;50.956;3.106;2024-03-23T09:08:26;3.60;;;1.70;;
17917;SDS011;9084;50.956;3.106;2024-03-23T09:10:54;4.55;;;1.70;;
17917;SDS011;9084;50.956;3.106;2024-03-23T09:13:20;4.35;;;1.42;;
17917;SDS011;9084;50.956;3.106;2024-03-23T09:15:47;3.33;;;2.03;;
17917;SDS011;9084;50.956;3.106;2024-03-23T09:18:16;1.92;;;1.48;;
17917;SDS011;9084;50.956;3.106;2024-03-23T09:20:42;5.32;;;1.50;;
17917;SDS011;9084;50.956;3.106;2024-03-23T09:23:08;5.28;;;1.55;;
17917;SDS011;9084;50.956;3.106;2024-03-23T09:25:39;5.82;;;1.67;;
17917;SDS011;9084;50.956;3.106;2024-03-23T09:28:07;4.15;;;2.15;;
17917;SDS011;9084;50.956;3.106;2024-03-23T09:30:36;3.03;;;1.60;;
17917;SDS011;9084;50.956;3.106;2024-03-23T09:33:07;3.33;;;1.60;;
17917;SDS011;9084;50.956;3.106;2024-03-23T09:35:37;5.10;;;1.25;;
17917;SDS011;9084;50.956;3.106;2024-03-23T09:38:05;7.18;;;1.42;;
17917;SDS011;9084;50.956;3.106;2024-03-23T09:40:35;3.35;;;1.35;;
17917;SDS011;9084;50.956;3.106;2024-03-23T09:43:10;2.90;;;1.42;;
17917;SDS011;9084;50.956;3.106;2024-03-23T09:45:38;6.63;;;1.65;;
17917;SDS011;9084;50.956;3.106;2024-03-23T09:48:08;3.55;;;1.38;;
17917;SDS011;9084;50.956;3.106;2024-03-23T09:50:43;5.45;;;1.30;;
17917;SDS011;9084;50.956;3.106;2024-03-23T09:53:10;6.15;;;1.00;;
17917;SDS011;9084;50.956;3.106;2024-03-23T09:55:40;5.22;;;1.30;;
17917;SDS011;9084;50.956;3.106;2024-03-23T09:58:12;3.78;;;1.15;;
17917;SDS011;9084;50.956;3.106;2024-03-23T10:00:39;4.95;;;1.35;;
17917;SDS011;9084;50.956;3.106;2024-03-23T10:03:07;3.15;;;1.02;;
17917;SDS011;9084;50.956;3.106;2024-03-23T10:05:36;5.80;;;1.20;;
17917;SDS011;9084;50.956;3.106;2024-03-23T10:08:23;3.92;;;1.15;;
17917;SDS011;9084;50.956;3.106;2024-03-23T10:10:48;3.72;;;1.40;;
17917;SDS011;9084;50.956;3.106;2024-03-23T10:13:23;4.10;;;0.70;;
17917;SDS011;9084;50.956;3.106;2024-03-23T10:15:55;7.32;;;1.10;;
17917;SDS011;9084;50.956;3.106;2024-03-23T10:18:25;2.60;;;0.98;;
17917;SDS011;9084;50.956;3.106;2024-03-23T10:21:06;7.32;;;1.65;;
17917;SDS011;9084;50.956;3.106;2024-03-23T10:23:35;3.78;;;1.92;;
17917;SDS011;9084;50.956;3.106;2024-03-23T10:31:35;2.38;;;0.85;;
17917;SDS011;9084;50.956;3.106;2024-03-23T10:34:06;10.18;;;5.28;;
17917;SDS011;9084;50.956;3.106;2024-03-23T10:36:32;3.22;;;1.20;;
17917;SDS011;9084;50.956;3.106;2024-03-23T10:39:00;4.50;;;1.40;;
17917;SDS011;9084;50.956;3.106;2024-03-23T10:41:29;3.83;;;1.13;;
17917;SDS011;9084;50.956;3.106;2024-03-23T10:44:00;3.72;;;1.15;;
17917;SDS011;9084;50.956;3.106;2024-03-23T10:46:29;4.07;;;1.23;;
17917;SDS011;9084;50.956;3.106;2024-03-23T10:48:56;3.53;;;1.02;;
17917;SDS011;9084;50.956;3.106;2024-03-23T10:51:21;5.20;;;2.22;;
17917;SDS011;9084;50.956;3.106;2024-03-23T10:53:47;4.40;;;1.42;;
17917;SDS011;9084;50.956;3.106;2024-03-23T10:56:13;4.15;;;1.38;;
17917;SDS011;9084;50.956;3.106;2024-03-23T10:58:43;4.40;;;1.10;;
17917;SDS011;9084;50.956;3.106;2024-03-23T11:01:12;3.58;;;1.00;;
17917;SDS011;9084;50.956;3.106;2024-03-23T11:03:39;2.08;;;0.73;;
17917;SDS011;9084;50.956;3.106;2024-03-23T11:06:10;4.40;;;1.00;;
17917;SDS011;9084;50.956;3.106;2024-03-23T11:08:56;3.13;;;0.90;;
17917;SDS011;9084;50.956;3.106;2024-03-23T11:11:24;3.67;;;1.45;;
17917;SDS011;9084;50.956;3.106;2024-03-23T11:13:50;4.65;;;1.40;;
17917;SDS011;9084;50.956;3.106;2024-03-23T11:16:23;3.03;;;1.20;;
17917;SDS011;9084;50.956;3.106;2024-03-23T11:18:55;3.80;;;1.27;;
17917;SDS011;9084;50.956;3.106;2024-03-23T11:21:59;6.53;;;1.20;;
17917;SDS011;9084;50.956;3.106;2024-03-23T11:24:25;2.47;;;1.10;;
17917;SDS011;9084;50.956;3.106;2024-03-23T11:26:53;3.38;;;1.02;;
17917;SDS011;9084;50.956;3.106;2024-03-23T11:29:19;4.32;;;1.23;;
17917;SDS011;9084;50.956;3.106;2024-03-23T11:31:48;3.85;;;1.38;;
17917;SDS011;9084;50.956;3.106;2024-03-23T11:34:14;4.53;;;1.00;;
17917;SDS011;9084;50.956;3.106;2024-03-23T11:36:41;2.25;;;1.33;;
17917;SDS011;9084;50.956;3.106;2024-03-23T11:39:17;2.80;;;1.08;;
17917;SDS011;9084;50.956;3.106;2024-03-23T11:41:51;1.70;;;0.50;;
17917;SDS011;9084;50.956;3.106;2024-03-23T11:46:50;6.30;;;1.05;;
17917;SDS011;9084;50.956;3.106;2024-03-23T11:49:23;4.13;;;1.27;;
17917;SDS011;9084;50.956;3.106;2024-03-23T11:51:53;2.88;;;1.08;;
17917;SDS011;9084;50.956;3.106;2024-03-23T11:54:22;4.90;;;1.10;;
17917;SDS011;9084;50.956;3.106;2024-03-23T12:02:06;4.07;;;0.75;;
17917;SDS011;9084;50.956;3.106;2024-03-23T12:04:32;3.05;;;1.08;;
17917;SDS011;9084;50.956;3.106;2024-03-23T12:07:14;3.30;;;1.17;;
17917;SDS011;9084;50.956;3.106;2024-03-23T12:09:43;3.97;;;0.90;;
17917;SDS011;9084;50.956;3.106;2024-03-23T12:12:13;5.68;;;0.90;;
17917;SDS011;9084;50.956;3.106;2024-03-23T12:14:45;2.38;;;0.93;;
17917;SDS011;9084;50.956;3.106;2024-03-23T12:17:27;1.85;;;0.88;;
17917;SDS011;9084;50.956;3.106;2024-03-23T12:19:53;3.92;;;0.80;;
17917;SDS011;9084;50.956;3.106;2024-03-23T12:22:22;3.35;;;1.02;;
17917;SDS011;9084;50.956;3.106;2024-03-23T12:24:50;2.20;;;1.05;;
17917;SDS011;9084;50.956;3.106;2024-03-23T12:27:16;2.65;;;0.80;;
17917;SDS011;9084;50.956;3.106;2024-03-23T12:29:44;3.05;;;0.90;;
17917;SDS011;9084;50.956;3.106;2024-03-23T12:32:14;2.78;;;0.80;;
17917;SDS011;9084;50.956;3.106;2024-03-23T12:34:40;3.55;;;0.98;;
17917;SDS011;9084;50.956;3.106;2024-03-23T12:37:06;3.28;;;1.38;;
17917;SDS011;9084;50.956;3.106;2024-03-23T12:39:32;3.00;;;0.88;;
17917;SDS011;9084;50.956;3.106;2024-03-23T12:41:57;3.45;;;0.90;;
17917;SDS011;9084;50.956;3.106;2024-03-23T12:44:23;1.92;;;0.90;;
17917;SDS011;9084;50.956;3.106;2024-03-23T12:46:49;3.97;;;0.93;;
17917;SDS011;9084;50.956;3.106;2024-03-23T12:49:19;3.60;;;0.85;;
17917;SDS011;9084;50.956;3.106;2024-03-23T12:52:03;3.40;;;0.90;;
17917;SDS011;9084;50.956;3.106;2024-03-23T12:54:29;2.58;;;0.80;;
17917;SDS011;9084;50.956;3.106;2024-03-23T12:56:56;3.40;;;1.13;;
17917;SDS011;9084;50.956;3.106;2024-03-23T12:59:22;2.05;;;1.00;;
17917;SDS011;9084;50.956;3.106;2024-03-23T13:01:47;1.52;;;0.80;;
17917;SDS011;9084;50.956;3.106;2024-03-23T13:04:13;3.63;;;0.98;;
17917;SDS011;9084;50.956;3.106;2024-03-23T13:06:39;3.72;;;1.10;;
17917;SDS011;9084;50.956;3.106;2024-03-23T13:09:07;3.17;;;1.15;;
17917;SDS011;9084;50.956;3.106;2024-03-23T13:11:33;2.60;;;0.80;;
17917;SDS011;9084;50.956;3.106;2024-03-23T13:13:59;3.80;;;0.80;;
17917;SDS011;9084;50.956;3.106;2024-03-23T13:16:27;4.28;;;1.05;;
17917;SDS011;9084;50.956;3.106;2024-03-23T13:18:53;2.63;;;0.70;;
17917;SDS011;9084;50.956;3.106;2024-03-23T13:21:20;4.88;;;1.05;;
17917;SDS011;9084;50.956;3.106;2024-03-23T13:23:46;3.00;;;0.88;;
17917;SDS011;9084;50.956;3.106;2024-03-23T13:26:13;4.97;;;1.00;;
17917;SDS011;9084;50.956;3.106;2024-03-23T13:28:39;2.75;;;0.82;;
17917;SDS011;9084;50.956;3.106;2024-03-23T13:31:07;2.47;;;0.95;;
17917;SDS011;9084;50.956;3.106;2024-03-23T13:33:37;3.28;;;0.88;;
17917;SDS011;9084;50.956;3.106;2024-03-23T13:36:03;4.85;;;1.52;;
17917;SDS011;9084;50.956;3.106;2024-03-23T13:38:31;3.92;;;1.10;;
17917;SDS011;9084;50.956;3.106;2024-03-23T13:41:00;2.30;;;0.80;;
17917;SDS011;9084;50.956;3.106;2024-03-23T13:43:32;3.40;;;0.98;;
17917;SDS011;9084;50.956;3.106;2024-03-23T13:46:00;3.42;;;0.98;;
17917;SDS011;9084;50.956;3.106;2024-03-23T13:48:27;4.80;;;1.23;;
17917;SDS011;9084;50.956;3.106;2024-03-23T13:51:04;5.65;;;0.93;;
17917;SDS011;9084;50.956;3.106;2024-03-23T13:53:30;4.85;;;1.20;;
17917;SDS011;9084;50.956;3.106;2024-03-23T13:55:59;2.17;;;0.80;;
17917;SDS011;9084;50.956;3.106;2024-03-23T13:58:24;4.05;;;1.05;;
17917;SDS011;9084;50.956;3.106;2024-03-23T14:00:50;6.40;;;1.38;;
17917;SDS011;9084;50.956;3.106;2024-03-23T14:03:19;2.85;;;1.20;;
17917;SDS011;9084;50.956;3.106;2024-03-23T14:05:45;5.22;;;1.20;;
17917;SDS011;9084;50.956;3.106;2024-03-23T14:08:12;4.38;;;1.30;;
17917;SDS011;9084;50.956;3.106;2024-03-23T14:10:41;2.10;;;0.90;;
17917;SDS011;9084;50.956;3.106;2024-03-23T14:13:07;2.65;;;1.15;;
17917;SDS011;9084;50.956;3.106;2024-03-23T14:15:34;3.05;;;1.05;;
17917;SDS011;9084;50.956;3.106;2024-03-23T14:18:01;3.22;;;0.82;;
17917;SDS011;9084;50.956;3.106;2024-03-23T14:20:29;5.28;;;1.23;;
17917;SDS011;9084;50.956;3.106;2024-03-23T14:22:57;4.13;;;0.77;;
17917;SDS011;9084;50.956;3.106;2024-03-23T14:25:23;2.88;;;1.13;;
17917;SDS011;9084;50.956;3.106;2024-03-23T14:27:52;2.13;;;0.82;;
17917;SDS011;9084;50.956;3.106;2024-03-23T14:30:20;3.72;;;0.80;;
17917;SDS011;9084;50.956;3.106;2024-03-23T14:32:45;3.05;;;1.00;;
17917;SDS011;9084;50.956;3.106;2024-03-23T14:35:11;2.03;;;0.63;;
17917;SDS011;9084;50.956;3.106;2024-03-23T14:37:37;3.70;;;0.90;;
17917;SDS011;9084;50.956;3.106;2024-03-23T14:40:03;2.97;;;1.13;;
17917;SDS011;9084;50.956;3.106;2024-03-23T14:42:29;4.07;;;0.95;;
17917;SDS011;9084;50.956;3.106;2024-03-23T14:44:57;3.80;;;0.93;;
17917;SDS011;9084;50.956;3.106;2024-03-23T14:47:23;6.65;;;1.52;;
17917;SDS011;9084;50.956;3.106;2024-03-23T14:49:51;2.38;;;0.75;;
17917;SDS011;9084;50.956;3.106;2024-03-23T14:52:17;2.53;;;0.95;;
17917;SDS011;9084;50.956;3.106;2024-03-23T14:54:47;2.75;;;1.00;;
17917;SDS011;9084;50.956;3.106;2024-03-23T14:57:13;2.42;;;1.00;;
17917;SDS011;9084;50.956;3.106;2024-03-23T14:59:38;3.47;;;0.85;;
17917;SDS011;9084;50.956;3.106;2024-03-23T15:02:05;2.65;;;0.98;;
17917;SDS011;9084;50.956;3.106;2024-03-23T15:04:34;3.33;;;0.90;;
17917;SDS011;9084;50.956;3.106;2024-03-23T15:07:00;5.00;;;0.77;;
17917;SDS011;9084;50.956;3.106;2024-03-23T15:09:26;2.35;;;0.98;;
17917;SDS011;9084;50.956;3.106;2024-03-23T15:11:51;2.90;;;0.80;;
17917;SDS011;9084;50.956;3.106;2024-03-23T15:14:20;2.60;;;1.13;;
17917;SDS011;9084;50.956;3.106;2024-03-23T15:16:46;2.80;;;0.90;;
17917;SDS011;9084;50.956;3.106;2024-03-23T15:19:14;2.88;;;1.00;;
17917;SDS011;9084;50.956;3.106;2024-03-23T15:21:40;4.65;;;1.73;;
17917;SDS011;9084;50.956;3.106;2024-03-23T15:24:06;3.45;;;0.90;;
17917;SDS011;9084;50.956;3.106;2024-03-23T15:26:38;2.70;;;1.15;;
17917;SDS011;9084;50.956;3.106;2024-03-23T15:29:04;5.65;;;1.00;;
17917;SDS011;9084;50.956;3.106;2024-03-23T15:31:37;5.00;;;1.10;;
17917;SDS011;9084;50.956;3.106;2024-03-23T15:34:03;4.60;;;1.17;;
17917;SDS011;9084;50.956;3.106;2024-03-23T15:36:37;4.13;;;1.10;;
17917;SDS011;9084;50.956;3.106;2024-03-23T15:39:04;3.97;;;1.52;;
17917;SDS011;9084;50.956;3.106;2024-03-23T15:41:30;4.75;;;1.40;;
17917;SDS011;9084;50.956;3.106;2024-03-23T15:43:56;4.82;;;1.45;;
17917;SDS011;9084;50.956;3.106;2024-03-23T15:46:21;3.20;;;1.10;;
17917;SDS011;9084;50.956;3.106;2024-03-23T15:48:52;6.13;;;1.85;;
17917;SDS011;9084;50.956;3.106;2024-03-23T15:51:19;3.67;;;1.20;;
17917;SDS011;9084;50.956;3.106;2024-03-23T15:53:45;5.68;;;1.27;;
17917;SDS011;9084;50.956;3.106;2024-03-23T15:56:11;4.72;;;0.80;;
17917;SDS011;9084;50.956;3.106;2024-03-23T15:58:39;3.72;;;2.08;;
17917;SDS011;9084;50.956;3.106;2024-03-23T16:01:08;4.15;;;1.40;;
17917;SDS011;9084;50.956;3.106;2024-03-23T16:03:37;3.60;;;1.10;;
17917;SDS011;9084;50.956;3.106;2024-03-23T16:06:03;3.78;;;0.90;;
17917;SDS011;9084;50.956;3.106;2024-03-23T16:08:32;4.10;;;1.23;;